sensor_id;sensor_type;location;lat;lon;timestamp;P1;durP1;ratioP1;P2;durP2;ratioP2
769;SDS011;368;48.698;9.116;2023-08-06T00:00:40;3.60;;;3.30;;
769;SDS011;368;48.698;9.116;2023-08-06T00:03:07;4.17;;;3.77;;
769;SDS011;368;48.698;9.116;2023-08-06T00:05:34;3.30;;;3.10;;
769;SDS011;368;48.698;9.116;2023-08-06T00:08:02;3.70;;;3.30;;
769;SDS011;368;48.698;9.116;2023-08-06T00:10:30;3.43;;;3.20;;
769;SDS011;368;48.698;9.116;2023-08-06T00:12:57;3.27;;;3.07;;
769;SDS011;368;48.698;9.116;2023-08-06T00:15:24;4.00;;;3.17;;
769;SDS011;368;48.698;9.116;2023-08-06T00:17:51;3.63;;;3.33;;
769;SDS011;368;48.698;9.116;2023-08-06T00:20:18;3.83;;;3.53;;
769;SDS011;368;48.698;9.116;2023-08-06T00:22:45;3.53;;;3.23;;
769;SDS011;368;48.698;9.116;2023-08-06T00:25:12;4.57;;;3.53;;
769;SDS011;368;48.698;9.116;2023-08-06T00:27:40;4.13;;;3.63;;
769;SDS011;368;48.698;9.116;2023-08-06T00:30:07;3.47;;;3.17;;
769;SDS011;368;48.698;9.116;2023-08-06T00:32:35;3.87;;;3.57;;
769;SDS011;368;48.698;9.116;2023-08-06T00:35:02;3.40;;;3.10;;
769;SDS011;368;48.698;9.116;2023-08-06T00:37:29;4.03;;;3.43;;
769;SDS011;368;48.698;9.116;2023-08-06T00:39:56;4.10;;;3.77;;
769;SDS011;368;48.698;9.116;2023-08-06T00:42:23;3.63;;;3.33;;
769;SDS011;368;48.698;9.116;2023-08-06T00:44:51;4.17;;;3.73;;
769;SDS011;368;48.698;9.116;2023-08-06T00:47:18;3.87;;;3.30;;
769;SDS011;368;48.698;9.116;2023-08-06T00:49:45;4.00;;;3.60;;
769;SDS011;368;48.698;9.116;2023-08-06T00:52:13;5.20;;;4.10;;
769;SDS011;368;48.698;9.116;2023-08-06T00:54:40;3.83;;;3.43;;
769;SDS011;368;48.698;9.116;2023-08-06T00:57:07;4.40;;;4.00;;
769;SDS011;368;48.698;9.116;2023-08-06T00:59:36;3.60;;;3.30;;
769;SDS011;368;48.698;9.116;2023-08-06T01:02:05;4.20;;;3.27;;
769;SDS011;368;48.698;9.116;2023-08-06T01:04:33;4.07;;;3.77;;
769;SDS011;368;48.698;9.116;2023-08-06T01:07:02;3.80;;;3.50;;
769;SDS011;368;48.698;9.116;2023-08-06T01:09:36;3.50;;;3.20;;
769;SDS011;368;48.698;9.116;2023-08-06T01:12:14;4.60;;;4.20;;
769;SDS011;368;48.698;9.116;2023-08-06T01:14:50;4.43;;;4.03;;
769;SDS011;368;48.698;9.116;2023-08-06T01:17:25;4.33;;;3.70;;
769;SDS011;368;48.698;9.116;2023-08-06T01:19:53;3.97;;;3.67;;
769;SDS011;368;48.698;9.116;2023-08-06T01:22:22;4.20;;;3.90;;
769;SDS011;368;48.698;9.116;2023-08-06T01:24:49;4.47;;;4.07;;
769;SDS011;368;48.698;9.116;2023-08-06T01:27:19;4.17;;;3.77;;
769;SDS011;368;48.698;9.116;2023-08-06T01:29:56;5.07;;;4.20;;
769;SDS011;368;48.698;9.116;2023-08-06T01:32:29;4.37;;;3.97;;
769;SDS011;368;48.698;9.116;2023-08-06T01:34:59;3.50;;;3.20;;
769;SDS011;368;48.698;9.116;2023-08-06T01:37:30;5.53;;;3.77;;
769;SDS011;368;48.698;9.116;2023-08-06T01:39:57;3.63;;;3.33;;
769;SDS011;368;48.698;9.116;2023-08-06T01:42:24;4.27;;;3.50;;
769;SDS011;368;48.698;9.116;2023-08-06T01:44:51;4.30;;;4.00;;
769;SDS011;368;48.698;9.116;2023-08-06T01:47:18;4.03;;;3.63;;
769;SDS011;368;48.698;9.116;2023-08-06T01:49:45;5.33;;;4.20;;
769;SDS011;368;48.698;9.116;2023-08-06T01:52:12;4.40;;;4.00;;
769;SDS011;368;48.698;9.116;2023-08-06T01:54:40;3.80;;;3.50;;
769;SDS011;368;48.698;9.116;2023-08-06T01:57:07;4.30;;;3.60;;
769;SDS011;368;48.698;9.116;2023-08-06T01:59:33;4.27;;;3.90;;
769;SDS011;368;48.698;9.116;2023-08-06T02:02:00;3.70;;;3.40;;
769;SDS011;368;48.698;9.116;2023-08-06T02:04:27;3.90;;;3.50;;
769;SDS011;368;48.698;9.116;2023-08-06T02:06:54;3.60;;;3.30;;
769;SDS011;368;48.698;9.116;2023-08-06T02:09:21;5.10;;;3.33;;
769;SDS011;368;48.698;9.116;2023-08-06T02:11:50;4.00;;;3.70;;
769;SDS011;368;48.698;9.116;2023-08-06T02:14:17;3.43;;;3.13;;
769;SDS011;368;48.698;9.116;2023-08-06T02:16:44;4.40;;;4.00;;
769;SDS011;368;48.698;9.116;2023-08-06T02:19:11;4.43;;;4.03;;
769;SDS011;368;48.698;9.116;2023-08-06T02:21:38;3.87;;;3.40;;
769;SDS011;368;48.698;9.116;2023-08-06T02:24:04;5.40;;;4.60;;
769;SDS011;368;48.698;9.116;2023-08-06T02:26:31;4.30;;;3.60;;
769;SDS011;368;48.698;9.116;2023-08-06T02:29:00;6.17;;;4.30;;
769;SDS011;368;48.698;9.116;2023-08-06T02:31:26;6.00;;;3.77;;
769;SDS011;368;48.698;9.116;2023-08-06T02:33:53;3.93;;;3.53;;
769;SDS011;368;48.698;9.116;2023-08-06T02:36:22;4.00;;;3.07;;
769;SDS011;368;48.698;9.116;2023-08-06T02:38:49;4.60;;;3.27;;
769;SDS011;368;48.698;9.116;2023-08-06T02:41:16;3.63;;;3.33;;
769;SDS011;368;48.698;9.116;2023-08-06T02:43:43;4.83;;;3.70;;
769;SDS011;368;48.698;9.116;2023-08-06T02:46:11;3.50;;;3.20;;
769;SDS011;368;48.698;9.116;2023-08-06T02:48:38;3.60;;;3.30;;
769;SDS011;368;48.698;9.116;2023-08-06T02:51:05;4.63;;;3.67;;
769;SDS011;368;48.698;9.116;2023-08-06T02:53:32;3.07;;;2.67;;
769;SDS011;368;48.698;9.116;2023-08-06T02:55:59;3.53;;;3.23;;
769;SDS011;368;48.698;9.116;2023-08-06T02:58:25;2.87;;;2.67;;
769;SDS011;368;48.698;9.116;2023-08-06T03:00:59;3.07;;;2.77;;
769;SDS011;368;48.698;9.116;2023-08-06T03:03:29;2.90;;;2.63;;
769;SDS011;368;48.698;9.116;2023-08-06T03:05:56;3.67;;;2.87;;
769;SDS011;368;48.698;9.116;2023-08-06T03:08:23;5.07;;;3.10;;
769;SDS011;368;48.698;9.116;2023-08-06T03:10:51;3.80;;;3.07;;
769;SDS011;368;48.698;9.116;2023-08-06T03:13:18;6.03;;;3.23;;
769;SDS011;368;48.698;9.116;2023-08-06T03:15:51;3.23;;;2.93;;
769;SDS011;368;48.698;9.116;2023-08-06T03:18:19;4.60;;;3.10;;
769;SDS011;368;48.698;9.116;2023-08-06T03:20:47;4.60;;;2.97;;
769;SDS011;368;48.698;9.116;2023-08-06T03:23:14;3.60;;;2.90;;
769;SDS011;368;48.698;9.116;2023-08-06T03:25:41;2.77;;;2.40;;
769;SDS011;368;48.698;9.116;2023-08-06T03:28:08;3.27;;;2.97;;
769;SDS011;368;48.698;9.116;2023-08-06T03:30:35;3.30;;;3.00;;
769;SDS011;368;48.698;9.116;2023-08-06T03:33:03;3.17;;;2.50;;
769;SDS011;368;48.698;9.116;2023-08-06T03:35:29;3.30;;;3.00;;
769;SDS011;368;48.698;9.116;2023-08-06T03:37:58;2.87;;;2.57;;
769;SDS011;368;48.698;9.116;2023-08-06T03:40:25;3.70;;;3.27;;
769;SDS011;368;48.698;9.116;2023-08-06T03:42:52;3.13;;;2.83;;
769;SDS011;368;48.698;9.116;2023-08-06T03:45:19;3.90;;;2.87;;
769;SDS011;368;48.698;9.116;2023-08-06T03:47:45;2.90;;;2.53;;
769;SDS011;368;48.698;9.116;2023-08-06T03:50:12;3.67;;;2.30;;
769;SDS011;368;48.698;9.116;2023-08-06T03:52:39;4.30;;;2.60;;
769;SDS011;368;48.698;9.116;2023-08-06T03:55:08;5.77;;;2.90;;
769;SDS011;368;48.698;9.116;2023-08-06T03:57:35;3.50;;;3.03;;
769;SDS011;368;48.698;9.116;2023-08-06T04:00:02;4.00;;;3.17;;
769;SDS011;368;48.698;9.116;2023-08-06T04:02:29;4.30;;;3.00;;
769;SDS011;368;48.698;9.116;2023-08-06T04:04:56;4.00;;;2.43;;
769;SDS011;368;48.698;9.116;2023-08-06T04:07:24;3.60;;;2.73;;
769;SDS011;368;48.698;9.116;2023-08-06T04:09:52;3.40;;;2.07;;
769;SDS011;368;48.698;9.116;2023-08-06T04:12:21;4.50;;;2.70;;
769;SDS011;368;48.698;9.116;2023-08-06T04:14:48;6.30;;;2.27;;
769;SDS011;368;48.698;9.116;2023-08-06T04:17:17;3.57;;;2.13;;
769;SDS011;368;48.698;9.116;2023-08-06T04:19:45;3.27;;;2.50;;
769;SDS011;368;48.698;9.116;2023-08-06T04:22:13;4.20;;;2.60;;
769;SDS011;368;48.698;9.116;2023-08-06T04:24:40;1.93;;;1.77;;
769;SDS011;368;48.698;9.116;2023-08-06T04:27:07;4.43;;;3.20;;
769;SDS011;368;48.698;9.116;2023-08-06T04:29:36;4.10;;;2.47;;
769;SDS011;368;48.698;9.116;2023-08-06T04:32:03;5.20;;;2.17;;
769;SDS011;368;48.698;9.116;2023-08-06T04:34:31;4.23;;;1.90;;
769;SDS011;368;48.698;9.116;2023-08-06T04:36:58;2.20;;;2.00;;
769;SDS011;368;48.698;9.116;2023-08-06T04:39:25;2.50;;;2.00;;
769;SDS011;368;48.698;9.116;2023-08-06T04:41:52;5.80;;;2.47;;
769;SDS011;368;48.698;9.116;2023-08-06T04:44:19;3.60;;;1.77;;
769;SDS011;368;48.698;9.116;2023-08-06T04:46:48;2.03;;;1.83;;
769;SDS011;368;48.698;9.116;2023-08-06T04:49:15;3.67;;;1.90;;
769;SDS011;368;48.698;9.116;2023-08-06T04:51:42;2.83;;;2.33;;
769;SDS011;368;48.698;9.116;2023-08-06T04:54:09;3.47;;;2.13;;
769;SDS011;368;48.698;9.116;2023-08-06T04:56:36;3.37;;;1.80;;
769;SDS011;368;48.698;9.116;2023-08-06T04:59:03;3.30;;;1.83;;
769;SDS011;368;48.698;9.116;2023-08-06T05:01:30;3.00;;;1.73;;
769;SDS011;368;48.698;9.116;2023-08-06T05:03:58;1.67;;;1.47;;
769;SDS011;368;48.698;9.116;2023-08-06T05:06:24;3.80;;;2.20;;
769;SDS011;368;48.698;9.116;2023-08-06T05:08:51;3.67;;;1.73;;
769;SDS011;368;48.698;9.116;2023-08-06T05:11:18;3.93;;;3.00;;
769;SDS011;368;48.698;9.116;2023-08-06T05:13:45;2.67;;;1.20;;
769;SDS011;368;48.698;9.116;2023-08-06T05:16:11;1.33;;;1.03;;
769;SDS011;368;48.698;9.116;2023-08-06T05:18:38;1.80;;;1.30;;
769;SDS011;368;48.698;9.116;2023-08-06T05:21:08;2.70;;;1.50;;
769;SDS011;368;48.698;9.116;2023-08-06T05:23:34;2.33;;;1.70;;
769;SDS011;368;48.698;9.116;2023-08-06T05:26:01;3.17;;;1.43;;
769;SDS011;368;48.698;9.116;2023-08-06T05:28:28;3.30;;;1.23;;
769;SDS011;368;48.698;9.116;2023-08-06T05:30:55;2.30;;;1.57;;
769;SDS011;368;48.698;9.116;2023-08-06T05:33:22;2.47;;;1.93;;
769;SDS011;368;48.698;9.116;2023-08-06T05:35:49;3.20;;;2.00;;
769;SDS011;368;48.698;9.116;2023-08-06T05:38:17;2.03;;;1.40;;
769;SDS011;368;48.698;9.116;2023-08-06T05:40:44;2.23;;;1.40;;
769;SDS011;368;48.698;9.116;2023-08-06T05:43:11;2.60;;;1.67;;
769;SDS011;368;48.698;9.116;2023-08-06T05:45:37;3.80;;;1.70;;
769;SDS011;368;48.698;9.116;2023-08-06T05:48:04;2.70;;;2.17;;
769;SDS011;368;48.698;9.116;2023-08-06T05:50:31;3.10;;;1.80;;
769;SDS011;368;48.698;9.116;2023-08-06T05:52:58;2.50;;;1.60;;
769;SDS011;368;48.698;9.116;2023-08-06T05:55:26;3.13;;;1.20;;
769;SDS011;368;48.698;9.116;2023-08-06T05:57:53;1.83;;;1.27;;
769;SDS011;368;48.698;9.116;2023-08-06T06:00:21;3.40;;;1.40;;
769;SDS011;368;48.698;9.116;2023-08-06T06:02:48;2.17;;;1.70;;
769;SDS011;368;48.698;9.116;2023-08-06T06:05:15;2.67;;;1.90;;
769;SDS011;368;48.698;9.116;2023-08-06T06:07:42;2.43;;;1.90;;
769;SDS011;368;48.698;9.116;2023-08-06T06:10:09;4.03;;;2.17;;
769;SDS011;368;48.698;9.116;2023-08-06T06:12:40;4.70;;;1.90;;
769;SDS011;368;48.698;9.116;2023-08-06T06:15:07;2.13;;;1.70;;
769;SDS011;368;48.698;9.116;2023-08-06T06:17:35;3.20;;;1.37;;
769;SDS011;368;48.698;9.116;2023-08-06T06:20:02;2.93;;;1.93;;
769;SDS011;368;48.698;9.116;2023-08-06T06:22:29;2.40;;;1.97;;
769;SDS011;368;48.698;9.116;2023-08-06T06:24:56;2.97;;;2.07;;
769;SDS011;368;48.698;9.116;2023-08-06T06:27:23;3.93;;;1.47;;
769;SDS011;368;48.698;9.116;2023-08-06T06:29:51;4.90;;;1.90;;
769;SDS011;368;48.698;9.116;2023-08-06T06:32:19;2.07;;;0.90;;
769;SDS011;368;48.698;9.116;2023-08-06T06:34:46;1.60;;;1.50;;
769;SDS011;368;48.698;9.116;2023-08-06T06:37:13;2.07;;;1.10;;
769;SDS011;368;48.698;9.116;2023-08-06T06:39:40;2.00;;;1.10;;
769;SDS011;368;48.698;9.116;2023-08-06T06:42:07;1.33;;;0.90;;
769;SDS011;368;48.698;9.116;2023-08-06T06:44:33;3.03;;;1.40;;
769;SDS011;368;48.698;9.116;2023-08-06T06:47:02;1.77;;;1.33;;
769;SDS011;368;48.698;9.116;2023-08-06T06:49:29;2.37;;;1.13;;
769;SDS011;368;48.698;9.116;2023-08-06T06:51:56;2.83;;;1.27;;
769;SDS011;368;48.698;9.116;2023-08-06T06:54:23;2.43;;;1.10;;
769;SDS011;368;48.698;9.116;2023-08-06T06:56:50;2.17;;;1.20;;
769;SDS011;368;48.698;9.116;2023-08-06T06:59:16;3.23;;;1.60;;
769;SDS011;368;48.698;9.116;2023-08-06T07:01:43;1.87;;;1.70;;
769;SDS011;368;48.698;9.116;2023-08-06T07:04:11;1.07;;;0.97;;
769;SDS011;368;48.698;9.116;2023-08-06T07:06:38;0.90;;;0.87;;
769;SDS011;368;48.698;9.116;2023-08-06T07:09:05;6.47;;;5.87;;
769;SDS011;368;48.698;9.116;2023-08-06T07:11:32;1.77;;;1.30;;
769;SDS011;368;48.698;9.116;2023-08-06T07:13:58;1.57;;;1.47;;
769;SDS011;368;48.698;9.116;2023-08-06T07:16:25;0.70;;;0.70;;
769;SDS011;368;48.698;9.116;2023-08-06T07:18:52;3.07;;;0.90;;
769;SDS011;368;48.698;9.116;2023-08-06T07:21:21;1.53;;;0.97;;
769;SDS011;368;48.698;9.116;2023-08-06T07:23:48;1.27;;;0.70;;
769;SDS011;368;48.698;9.116;2023-08-06T07:26:15;0.80;;;0.60;;
769;SDS011;368;48.698;9.116;2023-08-06T07:28:42;1.17;;;1.07;;
769;SDS011;368;48.698;9.116;2023-08-06T07:31:09;0.90;;;0.70;;
769;SDS011;368;48.698;9.116;2023-08-06T07:33:36;2.50;;;2.30;;
769;SDS011;368;48.698;9.116;2023-08-06T07:36:10;2.00;;;1.83;;
769;SDS011;368;48.698;9.116;2023-08-06T07:38:39;1.23;;;0.83;;
769;SDS011;368;48.698;9.116;2023-08-06T07:41:06;0.67;;;0.40;;
769;SDS011;368;48.698;9.116;2023-08-06T07:43:34;1.20;;;0.67;;
769;SDS011;368;48.698;9.116;2023-08-06T07:46:01;0.53;;;0.50;;
769;SDS011;368;48.698;9.116;2023-08-06T07:48:28;0.80;;;0.40;;
769;SDS011;368;48.698;9.116;2023-08-06T07:50:55;1.27;;;0.80;;
769;SDS011;368;48.698;9.116;2023-08-06T07:53:22;0.50;;;0.27;;
769;SDS011;368;48.698;9.116;2023-08-06T07:55:53;0.37;;;0.20;;
769;SDS011;368;48.698;9.116;2023-08-06T07:58:21;0.93;;;0.40;;
769;SDS011;368;48.698;9.116;2023-08-06T08:00:49;0.60;;;0.30;;
769;SDS011;368;48.698;9.116;2023-08-06T08:03:16;0.50;;;0.20;;
769;SDS011;368;48.698;9.116;2023-08-06T08:05:44;0.90;;;0.53;;
769;SDS011;368;48.698;9.116;2023-08-06T08:08:11;0.50;;;0.30;;
769;SDS011;368;48.698;9.116;2023-08-06T08:10:38;0.30;;;0.20;;
769;SDS011;368;48.698;9.116;2023-08-06T08:13:06;0.40;;;0.20;;
769;SDS011;368;48.698;9.116;2023-08-06T08:15:33;0.40;;;0.30;;
769;SDS011;368;48.698;9.116;2023-08-06T08:18:01;0.40;;;0.20;;
769;SDS011;368;48.698;9.116;2023-08-06T08:20:27;0.63;;;0.63;;
769;SDS011;368;48.698;9.116;2023-08-06T08:22:57;0.80;;;0.43;;
769;SDS011;368;48.698;9.116;2023-08-06T08:25:25;2.17;;;1.70;;
769;SDS011;368;48.698;9.116;2023-08-06T08:27:52;0.50;;;0.40;;
769;SDS011;368;48.698;9.116;2023-08-06T08:30:20;0.40;;;0.20;;
769;SDS011;368;48.698;9.116;2023-08-06T08:32:47;0.50;;;0.23;;
769;SDS011;368;48.698;9.116;2023-08-06T08:35:14;0.67;;;0.60;;
769;SDS011;368;48.698;9.116;2023-08-06T08:37:41;0.40;;;0.30;;
769;SDS011;368;48.698;9.116;2023-08-06T08:40:09;0.60;;;0.20;;
769;SDS011;368;48.698;9.116;2023-08-06T08:42:36;0.40;;;0.17;;
769;SDS011;368;48.698;9.116;2023-08-06T08:45:04;0.40;;;0.20;;
769;SDS011;368;48.698;9.116;2023-08-06T08:47:35;0.70;;;0.70;;
769;SDS011;368;48.698;9.116;2023-08-06T08:50:03;0.60;;;0.40;;
769;SDS011;368;48.698;9.116;2023-08-06T08:52:32;1.10;;;1.10;;
769;SDS011;368;48.698;9.116;2023-08-06T08:55:01;0.70;;;0.70;;
769;SDS011;368;48.698;9.116;2023-08-06T08:57:28;1.13;;;1.07;;
769;SDS011;368;48.698;9.116;2023-08-06T08:59:55;0.60;;;0.60;;
769;SDS011;368;48.698;9.116;2023-08-06T09:02:22;0.50;;;0.20;;
769;SDS011;368;48.698;9.116;2023-08-06T09:04:52;0.83;;;0.40;;
769;SDS011;368;48.698;9.116;2023-08-06T09:07:22;0.40;;;0.30;;
769;SDS011;368;48.698;9.116;2023-08-06T09:09:51;0.90;;;0.73;;
769;SDS011;368;48.698;9.116;2023-08-06T09:12:19;0.60;;;0.40;;
769;SDS011;368;48.698;9.116;2023-08-06T09:14:46;0.80;;;0.53;;
769;SDS011;368;48.698;9.116;2023-08-06T09:17:13;0.47;;;0.40;;
769;SDS011;368;48.698;9.116;2023-08-06T09:19:44;0.30;;;0.20;;
769;SDS011;368;48.698;9.116;2023-08-06T09:22:14;0.40;;;0.20;;
769;SDS011;368;48.698;9.116;2023-08-06T09:24:41;0.30;;;0.20;;
769;SDS011;368;48.698;9.116;2023-08-06T09:27:10;0.47;;;0.20;;
769;SDS011;368;48.698;9.116;2023-08-06T09:29:40;0.70;;;0.20;;
769;SDS011;368;48.698;9.116;2023-08-06T09:32:08;0.40;;;0.20;;
769;SDS011;368;48.698;9.116;2023-08-06T09:34:34;0.30;;;0.20;;
769;SDS011;368;48.698;9.116;2023-08-06T09:37:02;0.30;;;0.20;;
769;SDS011;368;48.698;9.116;2023-08-06T09:39:31;0.97;;;0.20;;
769;SDS011;368;48.698;9.116;2023-08-06T09:41:58;1.20;;;0.90;;
769;SDS011;368;48.698;9.116;2023-08-06T09:44:26;1.07;;;0.97;;
769;SDS011;368;48.698;9.116;2023-08-06T09:46:54;0.60;;;0.27;;
769;SDS011;368;48.698;9.116;2023-08-06T09:49:25;0.60;;;0.40;;
769;SDS011;368;48.698;9.116;2023-08-06T09:51:53;1.13;;;0.70;;
769;SDS011;368;48.698;9.116;2023-08-06T09:54:23;1.27;;;0.53;;
769;SDS011;368;48.698;9.116;2023-08-06T09:56:53;0.60;;;0.50;;
769;SDS011;368;48.698;9.116;2023-08-06T09:59:20;0.40;;;0.40;;
769;SDS011;368;48.698;9.116;2023-08-06T10:01:47;0.40;;;0.20;;
769;SDS011;368;48.698;9.116;2023-08-06T10:04:14;0.30;;;0.20;;
769;SDS011;368;48.698;9.116;2023-08-06T10:06:43;0.60;;;0.40;;
769;SDS011;368;48.698;9.116;2023-08-06T10:09:13;1.17;;;0.33;;
769;SDS011;368;48.698;9.116;2023-08-06T10:11:40;2.07;;;1.57;;
769;SDS011;368;48.698;9.116;2023-08-06T10:14:16;1.07;;;0.47;;
769;SDS011;368;48.698;9.116;2023-08-06T10:16:48;1.73;;;1.40;;
769;SDS011;368;48.698;9.116;2023-08-06T10:19:16;0.97;;;0.70;;
769;SDS011;368;48.698;9.116;2023-08-06T10:24:45;0.40;;;0.20;;
769;SDS011;368;48.698;9.116;2023-08-06T10:27:19;1.17;;;0.70;;
769;SDS011;368;48.698;9.116;2023-08-06T10:29:48;0.50;;;0.40;;
769;SDS011;368;48.698;9.116;2023-08-06T10:32:15;0.60;;;0.50;;
769;SDS011;368;48.698;9.116;2023-08-06T10:34:53;0.73;;;0.50;;
769;SDS011;368;48.698;9.116;2023-08-06T10:37:21;0.40;;;0.30;;
769;SDS011;368;48.698;9.116;2023-08-06T10:39:49;0.40;;;0.30;;
769;SDS011;368;48.698;9.116;2023-08-06T10:42:23;0.43;;;0.37;;
769;SDS011;368;48.698;9.116;2023-08-06T10:47:45;0.97;;;0.97;;
769;SDS011;368;48.698;9.116;2023-08-06T10:50:12;2.80;;;2.60;;
769;SDS011;368;48.698;9.116;2023-08-06T10:52:41;1.00;;;0.40;;
769;SDS011;368;48.698;9.116;2023-08-06T10:55:09;0.40;;;0.37;;
769;SDS011;368;48.698;9.116;2023-08-06T10:57:36;0.67;;;0.30;;
769;SDS011;368;48.698;9.116;2023-08-06T11:00:04;1.50;;;0.40;;
769;SDS011;368;48.698;9.116;2023-08-06T11:02:34;1.90;;;0.30;;
769;SDS011;368;48.698;9.116;2023-08-06T11:05:05;0.40;;;0.20;;
769;SDS011;368;48.698;9.116;2023-08-06T11:07:33;1.00;;;0.20;;
769;SDS011;368;48.698;9.116;2023-08-06T11:10:01;0.40;;;0.20;;
769;SDS011;368;48.698;9.116;2023-08-06T11:12:29;0.30;;;0.20;;
769;SDS011;368;48.698;9.116;2023-08-06T11:14:56;0.30;;;0.20;;
769;SDS011;368;48.698;9.116;2023-08-06T11:17:22;1.90;;;0.30;;
769;SDS011;368;48.698;9.116;2023-08-06T11:19:51;1.27;;;0.20;;
769;SDS011;368;48.698;9.116;2023-08-06T11:22:18;0.40;;;0.20;;
769;SDS011;368;48.698;9.116;2023-08-06T11:24:46;0.40;;;0.20;;
769;SDS011;368;48.698;9.116;2023-08-06T11:27:13;1.33;;;0.40;;
769;SDS011;368;48.698;9.116;2023-08-06T11:29:40;0.50;;;0.30;;
769;SDS011;368;48.698;9.116;2023-08-06T11:32:07;0.63;;;0.30;;
769;SDS011;368;48.698;9.116;2023-08-06T11:34:34;0.77;;;0.30;;
769;SDS011;368;48.698;9.116;2023-08-06T11:37:03;0.80;;;0.43;;
769;SDS011;368;48.698;9.116;2023-08-06T11:39:31;0.80;;;0.40;;
769;SDS011;368;48.698;9.116;2023-08-06T11:41:58;1.17;;;0.70;;
769;SDS011;368;48.698;9.116;2023-08-06T11:44:29;1.13;;;0.53;;
769;SDS011;368;48.698;9.116;2023-08-06T11:46:58;0.90;;;0.57;;
769;SDS011;368;48.698;9.116;2023-08-06T11:49:39;0.80;;;0.43;;
769;SDS011;368;48.698;9.116;2023-08-06T11:52:20;0.50;;;0.50;;
769;SDS011;368;48.698;9.116;2023-08-06T11:54:59;0.70;;;0.70;;
769;SDS011;368;48.698;9.116;2023-08-06T11:57:29;0.60;;;0.43;;
769;SDS011;368;48.698;9.116;2023-08-06T11:59:58;1.27;;;0.70;;
769;SDS011;368;48.698;9.116;2023-08-06T12:02:27;1.60;;;1.10;;
769;SDS011;368;48.698;9.116;2023-08-06T12:05:00;0.67;;;0.63;;
769;SDS011;368;48.698;9.116;2023-08-06T12:07:29;0.87;;;0.60;;
769;SDS011;368;48.698;9.116;2023-08-06T12:09:57;0.70;;;0.40;;
769;SDS011;368;48.698;9.116;2023-08-06T12:12:24;0.60;;;0.40;;
769;SDS011;368;48.698;9.116;2023-08-06T12:14:51;1.00;;;0.70;;
769;SDS011;368;48.698;9.116;2023-08-06T12:17:17;1.50;;;0.50;;
769;SDS011;368;48.698;9.116;2023-08-06T12:19:44;1.10;;;0.60;;
769;SDS011;368;48.698;9.116;2023-08-06T12:22:12;1.03;;;0.60;;
769;SDS011;368;48.698;9.116;2023-08-06T12:24:41;0.73;;;0.73;;
769;SDS011;368;48.698;9.116;2023-08-06T12:27:08;1.00;;;0.90;;
769;SDS011;368;48.698;9.116;2023-08-06T12:29:35;1.07;;;0.60;;
769;SDS011;368;48.698;9.116;2023-08-06T12:32:02;0.97;;;0.97;;
769;SDS011;368;48.698;9.116;2023-08-06T12:34:29;1.07;;;0.97;;
769;SDS011;368;48.698;9.116;2023-08-06T12:36:56;0.50;;;0.40;;
769;SDS011;368;48.698;9.116;2023-08-06T12:39:22;1.10;;;0.40;;
769;SDS011;368;48.698;9.116;2023-08-06T12:41:51;0.60;;;0.50;;
769;SDS011;368;48.698;9.116;2023-08-06T12:44:18;0.90;;;0.60;;
769;SDS011;368;48.698;9.116;2023-08-06T12:46:45;0.70;;;0.50;;
769;SDS011;368;48.698;9.116;2023-08-06T12:49:12;0.90;;;0.67;;
769;SDS011;368;48.698;9.116;2023-08-06T12:51:38;1.03;;;0.50;;
769;SDS011;368;48.698;9.116;2023-08-06T12:54:05;1.37;;;0.60;;
769;SDS011;368;48.698;9.116;2023-08-06T12:56:32;1.00;;;0.80;;
769;SDS011;368;48.698;9.116;2023-08-06T12:59:01;0.50;;;0.33;;
769;SDS011;368;48.698;9.116;2023-08-06T13:01:28;1.60;;;0.80;;
769;SDS011;368;48.698;9.116;2023-08-06T13:03:55;1.00;;;0.90;;
769;SDS011;368;48.698;9.116;2023-08-06T13:06:21;0.60;;;0.60;;
769;SDS011;368;48.698;9.116;2023-08-06T13:08:48;1.73;;;0.90;;
769;SDS011;368;48.698;9.116;2023-08-06T13:11:15;1.07;;;0.70;;
769;SDS011;368;48.698;9.116;2023-08-06T13:13:42;1.10;;;1.00;;
769;SDS011;368;48.698;9.116;2023-08-06T13:16:10;1.43;;;0.97;;
769;SDS011;368;48.698;9.116;2023-08-06T13:18:37;1.67;;;0.90;;
769;SDS011;368;48.698;9.116;2023-08-06T13:21:04;1.73;;;0.67;;
769;SDS011;368;48.698;9.116;2023-08-06T13:23:30;1.93;;;0.57;;
769;SDS011;368;48.698;9.116;2023-08-06T13:25:57;0.97;;;0.87;;
769;SDS011;368;48.698;9.116;2023-08-06T13:28:24;0.77;;;0.60;;
769;SDS011;368;48.698;9.116;2023-08-06T13:30:51;1.53;;;0.60;;
769;SDS011;368;48.698;9.116;2023-08-06T13:33:19;0.77;;;0.73;;
769;SDS011;368;48.698;9.116;2023-08-06T13:35:46;0.60;;;0.40;;
769;SDS011;368;48.698;9.116;2023-08-06T13:38:14;0.87;;;0.50;;
769;SDS011;368;48.698;9.116;2023-08-06T13:40:41;1.00;;;0.50;;
769;SDS011;368;48.698;9.116;2023-08-06T13:43:09;1.90;;;0.60;;
769;SDS011;368;48.698;9.116;2023-08-06T13:45:36;1.00;;;0.60;;
769;SDS011;368;48.698;9.116;2023-08-06T13:48:03;1.33;;;0.70;;
769;SDS011;368;48.698;9.116;2023-08-06T13:50:31;0.80;;;0.63;;
769;SDS011;368;48.698;9.116;2023-08-06T13:52:58;0.40;;;0.40;;
769;SDS011;368;48.698;9.116;2023-08-06T13:55:25;0.97;;;0.50;;
769;SDS011;368;48.698;9.116;2023-08-06T13:57:52;0.97;;;0.80;;
769;SDS011;368;48.698;9.116;2023-08-06T14:00:19;1.17;;;0.50;;
769;SDS011;368;48.698;9.116;2023-08-06T14:02:46;0.97;;;0.63;;
769;SDS011;368;48.698;9.116;2023-08-06T14:05:13;1.20;;;0.60;;
769;SDS011;368;48.698;9.116;2023-08-06T14:07:41;0.60;;;0.60;;
769;SDS011;368;48.698;9.116;2023-08-06T14:10:08;1.97;;;0.70;;
769;SDS011;368;48.698;9.116;2023-08-06T14:12:35;1.20;;;0.43;;
769;SDS011;368;48.698;9.116;2023-08-06T14:15:02;1.10;;;0.70;;
769;SDS011;368;48.698;9.116;2023-08-06T14:17:29;1.33;;;0.90;;
769;SDS011;368;48.698;9.116;2023-08-06T14:19:56;2.60;;;1.07;;
769;SDS011;368;48.698;9.116;2023-08-06T14:22:22;0.90;;;0.60;;
769;SDS011;368;48.698;9.116;2023-08-06T14:24:51;2.10;;;0.60;;
769;SDS011;368;48.698;9.116;2023-08-06T14:27:18;0.50;;;0.40;;
769;SDS011;368;48.698;9.116;2023-08-06T14:29:45;0.70;;;0.60;;
769;SDS011;368;48.698;9.116;2023-08-06T14:32:11;0.70;;;0.50;;
769;SDS011;368;48.698;9.116;2023-08-06T14:34:39;0.80;;;0.60;;
769;SDS011;368;48.698;9.116;2023-08-06T14:37:06;1.33;;;0.67;;
769;SDS011;368;48.698;9.116;2023-08-06T14:39:33;0.70;;;0.70;;
769;SDS011;368;48.698;9.116;2023-08-06T14:42:01;0.80;;;0.80;;
769;SDS011;368;48.698;9.116;2023-08-06T14:44:29;1.03;;;0.63;;
769;SDS011;368;48.698;9.116;2023-08-06T14:46:55;1.07;;;0.77;;
769;SDS011;368;48.698;9.116;2023-08-06T14:49:23;1.03;;;0.93;;
769;SDS011;368;48.698;9.116;2023-08-06T14:51:49;1.07;;;0.70;;
769;SDS011;368;48.698;9.116;2023-08-06T14:54:16;1.10;;;1.00;;
769;SDS011;368;48.698;9.116;2023-08-06T14:56:46;0.70;;;0.70;;
769;SDS011;368;48.698;9.116;2023-08-06T14:59:14;0.90;;;0.87;;
769;SDS011;368;48.698;9.116;2023-08-06T15:01:41;0.70;;;0.50;;
769;SDS011;368;48.698;9.116;2023-08-06T15:04:08;0.80;;;0.63;;
769;SDS011;368;48.698;9.116;2023-08-06T15:06:35;0.60;;;0.53;;
769;SDS011;368;48.698;9.116;2023-08-06T15:09:01;1.47;;;0.60;;
769;SDS011;368;48.698;9.116;2023-08-06T15:11:28;1.27;;;0.63;;
769;SDS011;368;48.698;9.116;2023-08-06T15:13:55;1.10;;;0.90;;
769;SDS011;368;48.698;9.116;2023-08-06T15:16:24;2.50;;;1.00;;
769;SDS011;368;48.698;9.116;2023-08-06T15:18:51;0.97;;;0.70;;
769;SDS011;368;48.698;9.116;2023-08-06T15:21:18;1.00;;;0.60;;
769;SDS011;368;48.698;9.116;2023-08-06T15:23:45;1.70;;;1.17;;
769;SDS011;368;48.698;9.116;2023-08-06T15:26:12;2.50;;;0.63;;
769;SDS011;368;48.698;9.116;2023-08-06T15:28:38;1.27;;;0.67;;
769;SDS011;368;48.698;9.116;2023-08-06T15:31:05;0.90;;;0.80;;
769;SDS011;368;48.698;9.116;2023-08-06T15:33:35;0.70;;;0.70;;
769;SDS011;368;48.698;9.116;2023-08-06T15:36:01;0.73;;;0.57;;
769;SDS011;368;48.698;9.116;2023-08-06T15:38:29;1.87;;;1.10;;
769;SDS011;368;48.698;9.116;2023-08-06T15:40:55;0.80;;;0.70;;
769;SDS011;368;48.698;9.116;2023-08-06T15:43:22;1.33;;;0.90;;
769;SDS011;368;48.698;9.116;2023-08-06T15:45:49;3.60;;;1.90;;
769;SDS011;368;48.698;9.116;2023-08-06T15:48:16;0.80;;;0.60;;
769;SDS011;368;48.698;9.116;2023-08-06T15:50:44;1.13;;;0.47;;
769;SDS011;368;48.698;9.116;2023-08-06T15:53:11;0.80;;;0.70;;